メインページ
METAR-TAF:

METAR-TAF

空港 :

クアラルンプール, マレーシア

クアラルンプール国際空港

緯度: 02-44N, 経度: 101-42E, 海抜: 21m

現時点の気象観測

当レポートは32分前の12:30(UTC)に作成
無風
気温 26°C
湿度 94%
気圧 1009 hPa
視程: 8000m
高度1000ftの雲はほとんどない
高度1700ftの雲はほとんどない, 積乱雲.
高度2800ftの雲は散在している
高度27000ftの千切れ雲あり
小雨

METAR: WMKK 241230Z 00000KT 8000 -RA FEW010 FEW017CB SCT028 BKN270 26/25 Q1009 NOSIG

時間: 21:02 (13:02 UTC)

予報

当レポートは2時間2分前の11:00(UTC)に作成
予報は24日の 12時(UTC)から 25日の 18時(UTC)まで有効
北東の風 5kt
視程10km以上
高度1700ftの雲はほとんどない, 積乱雲.
高度14000ftの雲は散在している
高度27000ftの千切れ雲あり
24日の 12時(UTC)から 24日の 16時(UTC)まで一時的に
視程: 3000m
高度1500ftの雲はほとんどない, 積乱雲.
高度1800ftの雲は散在している
激しい雷雨, 雨
25日の 06時(UTC)から 25日の 10時(UTC)まで一時的に
視程: 3000m
高度1500ftの雲はほとんどない, 積乱雲.
高度1800ftの雲は散在している
激しい雷雨, 雨

TAF: WMKK 241100Z 2412/2518 04005KT 9999 FEW017CB SCT140 BKN270 TEMPO 2412/2416 3000 TSRA FEW015CB SCT018 TEMPO 2506/2510 3000 TSRA FEW015CB SCT018

4,000以上の空港の気象観測と天気予報(METAR報とTAF報)

利用可能な観測所は地図上に黄色い丸と赤い丸で示す。

丸の上にカーソルを重ねると観測所名を参照できる。

次にクリックすると気象観測と天気予報を参照できる。

マップの切り替え:黒色「×」印の緑ボタンをクリックして拡大、「-」印の緑ボタンをクリックして縮小、緑色の三角印をクリックして隣りの地図に切り替え


METAR-TAF: